Airfield :







YOU CAN JOIN US ON...

 
LOGIN :

Register | Disclaimer

   EN    FR    IT 

 









Legend :    VFR   Marginal VFR   IFR   Intensive IFR   Very Intensive IFR
Visi :
Ceiling :
>= 8 km
>= 3000ft
5 to 8 km
1000 to 3000 ft
1500m to 5 km
500 to 1000 ft
800 to 1500m
200 to 500 ft
< 800m
< 200 ft
Symbols :   Thunderstorms  Fog  Heavy snow  Heavy precipitations  Wind > 20 kt






- Airport Elevation : 71 ft
- IATA code : YBC


CYBC - Baie Comeau

CURRENT METAR :
  • 010509Z AUTO 07024G34KT 3SM -RA BR FEW005 SCT017 BKN023 OVC055 03/03 A2977 RMK PRESFR SLP084

EXPIRED METARs :
  • 010501Z AUTO 07023G35KT 3SM -RA BR FEW005 SCT015 BKN025 OVC060 03/03 A2978 RMK PRESFR SLP085
  • 010410Z AUTO 08020G27KT 2 1/4SM -RA BR SCT007 OVC013 02/02 A2988 RMK PRESFR SLP125
  • 010405Z AUTO 08018G29KT 2 1/4SM -RA BR SCT007 OVC013 02/02 A2991 RMK PRESFR SLP129
  • 010332Z AUTO 07020G26KT 3SM -RA BR OVC013 02/02 A2993 RMK SLP138
  • 010326Z AUTO 07018G24KT 3SM -RA -UP BR OVC013 02/02 A2994 RMK SLP140
  • 010300Z AUTO 07018G24KT 3SM -UP BR OVC013 02/01 A2995 RMK PRESFR SLP146
  • 010248Z AUTO 07019G24KT 3SM -UP BR OVC011 02/01 A2996 RMK PRESFR SLP150
  • 010242Z AUTO 07017G22KT 3SM RA -UP BR OVC011 02/01 A2998 RMK PRESFR SLP153

TAF TAF CYBC
Valid from the 01 at 02:00 until the 01 at 14:00 UTC


010138Z 0102/0114 09018G28KT 2SM RA BR OVC004
TEMPO 0102/0114 6SM -RA BR SCT004 OVC010
BECMG 0112/0114 09010G20KT RMK FCST BASED ON AUTO OBS. NXT FCST BY 010800Z
CZUL FIR / North America



MET'MAP, your aeronautical weather chart ! - Copyright ORBIFLY December 2007 - Disclaimer

ORBIFLY MET'MAP TEAM :

Programming & Development : Alexandra Zaïnal
Concept & original design : Baudouin d'Aumeries
Assistance for programming : Marc-Olivier Méhu
Technical & hardware support : Manuel Goepfert

Contact : metmap@orbifly.com




SOURCES & CREDITS :

   NOAA